Historique des mesures à Cassis (13260), France
Quotidien Résumé Aout 3, 2021 Unités:  Métrique    US   Métrique/US
Quotidien Hebdomadaire Mensuel Annuel
  Maximum: Minimum: Moyenne:
Température: 15.4 °C 10.9 °C 13.7 °C
Point de rosée: 11.6 °C 4.1 °C 8.3 °C
Humidité: 80% 61% 70%
Vitesse du vent: 27.7km/h 0km/h 13.2km/h
Rafales: 36.4km/h - -
Vent- - West
Pression: 1001.0 hPa 996.4 hPa -
Précipitations: 0.0 mm    
Historical Graphs
 
 
Mesures pour : Aout 3, 2021
Heure Temperature Point de rosée Pression Vent Vitesse du vent Rafales Humidité Pluie (par heure)
00:11 14.9 °C 10.1 °C 1001.0 hPa South 2.5 km/h 9 km/h 73% 0.0 mm
01:10 15 °C 10.4 °C 1000.0 hPa SE 5.8 km/h 5.8 km/h 74% 0.0 mm
02:11 15.1 °C 10.7 °C 998.9 hPa Calm   7.6 km/h 75% 0.0 mm
03:10 15.4 °C 11.6 °C 998.1 hPa Calm   16.6 km/h 78% 0.0 mm
05:10 15.4 °C 10.4 °C 996.9 hPa South 3.6 km/h 11.9 km/h 72% 0.0 mm
06:11 14.2 °C 9.4 °C 997.0 hPa WNW 3.2 km/h 7.2 km/h 73% 0.0 mm
07:10 12.9 °C 8.9 °C 997.0 hPa NW 7.2 km/h 15.8 km/h 77% 0.0 mm
08:11 12.9 °C 9.5 °C 997.3 hPa NNW 3.6 km/h 8.3 km/h 80% 0.0 mm
09:10 15.2 °C 11.2 °C 998.1 hPa West 25.6 km/h 32.8 km/h 77% 0.0 mm
10:11 14.3 °C 10.1 °C 998.1 hPa West 14.4 km/h 36.4 km/h 76% 0.0 mm
11:10 14.9 °C 9.5 °C 997.6 hPa NNW 24.1 km/h 30.2 km/h 70% 0.0 mm
12:11 15.2 °C 8.7 °C 997.8 hPa West 20.2 km/h 31.7 km/h 65% 0.0 mm
13:10 13.9 °C 7.6 °C 997.7 hPa West 14.8 km/h 30.6 km/h 66% 0.0 mm
14:11 13.5 °C 7.7 °C 996.6 hPa WNW 27.7 km/h 33.8 km/h 68% 0.0 mm
15:10 13.5 °C 7.5 °C 996.4 hPa NW 20.9 km/h 32 km/h 67% 0.0 mm
16:11 13.2 °C 7.4 °C 996.8 hPa NNW 17.6 km/h 30.2 km/h 68% 0.0 mm
17:10 13.2 °C 7.2 °C 996.7 hPa WSW 9 km/h 19.1 km/h 67% 0.0 mm
18:11 13.1 °C 6.9 °C 997.1 hPa NNW 10.1 km/h 23.4 km/h 66% 0.0 mm
19:10 12.9 °C 6.9 °C 997.4 hPa WNW 14.8 km/h 20.9 km/h 67% 0.0 mm
20:11 12.9 °C 5.5 °C 997.7 hPa NW 19.4 km/h 31.7 km/h 61% 0.0 mm
21:10 12.2 °C 5.1 °C 998.5 hPa WSW 18.4 km/h 28.4 km/h 62% 0.0 mm
22:11 11.4 °C 4.6 °C 999.5 hPa WNW 16.6 km/h 29.5 km/h 63% 0.0 mm
23:10 10.9 °C 4.1 °C 999.9 hPa WNW 23 km/h 34.6 km/h 63% 0.0 mm
Observations météo à CASSIS
WU-History script by Weather Underground - 2 mb